Terminal Aerodrome Forecast
Issued by NWS Spokane, WA

Home | Current Version | Previous Version | Text Only | Print | Product List | Glossary On
Versions: 1 2 3 4 5 6 7 8 9 10 11 12 13 14 15 16 17 18 19 20 21 22 23 24 25 26
598
FTUS46 KOTX 132339
TAFLWS
TAF
KLWS 132339Z 1400/1424 20013KT P6SM SCT120
     FM140300 16008KT 6SM -RA BKN040 OVC060
     FM140900 18008KT P6SM VCSH OVC050=

USA.gov is the U.S. government's official web portal to all federal, state and local government web resources and services.